Rudytown, Pennsylvania
Current Conditions -  °F | °C
As of 10:56 PM on Tuesday 27 Jan 2015 (Local Time) from KCXY Reporting Station
Clear Clear  
Wind Chill: 10°   Ceiling: Unl
Heat Index: 21°   Visibility: 10mi
Dew Point:   Wind: 10mph
Humidity: 50%   Direction: 320°NW
Pressure: 29.99"   Gusts: NA
Location:  40.2034°N, 76.87°W
Report Text: KCXY 280356Z AUTO 32009KT 10SM CLR M06/M15 A2999 RMK AO2 SLP160 T10611150
Loading
Personal Weather Stations






























Interactive Weather Map New forecast layout! Learn more

10-Day Weather Forecast

Advertisements
Track Severe Weather on mobile